Time;durP1;ratioP1;P1;durP2;ratioP2;P2;SDS_P1;SDS_P2;PMS_P1;PMS_P2;Temp;Humidity;BMP_temperature;BMP_pressure;BME280_temperature;BME280_humidity;BME280_pressure;Samples;Min_cycle;Max_cycle;Signal;HPM_P1;HPM_P2
2022/06/22 00:00:36;;;;;;;6.43;4.10;;;;;;;;;;5030577;28;20296;-87
2022/06/22 00:03:04;;;;;;;6.80;3.75;;;;;;;;;;5032228;28;20017;-88
2022/06/22 00:05:35;;;;;;;8.40;3.95;;;;;;;;;;5031099;28;20029;-88
2022/06/22 00:08:03;;;;;;;5.10;3.35;;;;;;;;;;5031947;28;20041;-87
2022/06/22 00:10:30;;;;;;;5.85;3.63;;;;;;;;;;5012662;28;20067;-88
2022/06/22 00:12:56;;;;;;;8.23;3.83;;;;;;;;;;5011322;28;20018;-88
2022/06/22 00:15:26;;;;;;;10.65;3.78;;;;;;;;;;5013306;28;20036;-87
2022/06/22 00:17:51;;;;;;;4.35;2.83;;;;;;;;;;5010918;28;20152;-87
2022/06/22 00:20:24;;;;;;;8.23;4.07;;;;;;;;;;5012385;28;20069;-88
2022/06/22 00:22:53;;;;;;;4.35;2.75;;;;;;;;;;5012304;28;20018;-88
2022/06/22 00:25:19;;;;;;;7.55;3.40;;;;;;;;;;5012211;28;20025;-88
2022/06/22 00:27:45;;;;;;;7.25;3.28;;;;;;;;;;5011026;28;20101;-88
2022/06/22 00:30:37;;;;;;;7.13;3.60;;;;;;;;;;5014129;28;20014;-88
2022/06/22 00:33:02;;;;;;;6.68;2.95;;;;;;;;;;5029292;28;20499;-88
2022/06/22 00:35:46;;;;;;;7.03;4.00;;;;;;;;;;5030631;28;20064;-88
2022/06/22 00:38:27;;;;;;;4.80;2.95;;;;;;;;;;5030092;28;20270;-88
2022/06/22 00:40:54;;;;;;;6.18;3.13;;;;;;;;;;5030514;28;20022;-88
2022/06/22 00:43:19;;;;;;;10.95;3.67;;;;;;;;;;5029450;28;20463;-88
2022/06/22 00:45:45;;;;;;;7.97;4.30;;;;;;;;;;5030110;28;20026;-88
2022/06/22 00:48:20;;;;;;;8.45;4.32;;;;;;;;;;5030646;28;20159;-88
2022/06/22 00:50:58;;;;;;;7.47;4.93;;;;;;;;;;5031511;28;20033;-88
2022/06/22 00:53:29;;;;;;;10.48;4.50;;;;;;;;;;5028473;28;20017;-88
2022/06/22 00:55:57;;;;;;;10.18;4.20;;;;;;;;;;5031897;28;20084;-86
2022/06/22 00:58:27;;;;;;;10.55;4.18;;;;;;;;;;5031867;28;20022;-88
2022/06/22 01:01:02;;;;;;;9.48;4.20;;;;;;;;;;5031511;28;20108;-87
2022/06/22 01:03:48;;;;;;;10.18;4.28;;;;;;;;;;5031498;28;20014;-87
2022/06/22 01:06:15;;;;;;;5.82;4.55;;;;;;;;;;5032034;28;20009;-87
2022/06/22 01:08:40;;;;;;;7.18;4.88;;;;;;;;;;5033329;28;20097;-87
2022/06/22 01:12:16;;;;;;;6.57;4.30;;;;;;;;;;5035567;28;20175;-87
2022/06/22 01:13:57;;;;;;;9.45;4.45;;;;;;;;;;5035206;28;20132;-87
2022/06/22 01:16:27;;;;;;;9.30;4.80;;;;;;;;;;5035515;28;20095;-87
2022/06/22 01:18:58;;;;;;;10.80;4.38;;;;;;;;;;5024933;28;20026;-87
2022/06/22 01:21:25;;;;;;;11.55;5.07;;;;;;;;;;5014060;28;20471;-87
2022/06/22 01:24:07;;;;;;;5.22;4.72;;;;;;;;;;5033477;28;20096;-87
2022/06/22 01:26:45;;;;;;;9.50;5.20;;;;;;;;;;5035273;28;20109;-87
2022/06/22 01:29:12;;;;;;;6.90;4.20;;;;;;;;;;5035214;28;20144;-88
2022/06/22 01:31:41;;;;;;;9.90;4.88;;;;;;;;;;5035060;28;20403;-88
2022/06/22 01:34:12;;;;;;;10.70;5.38;;;;;;;;;;5035119;28;20033;-87
2022/06/22 01:36:39;;;;;;;10.68;4.50;;;;;;;;;;5032243;28;20013;-88
2022/06/22 01:39:05;;;;;;;12.13;5.63;;;;;;;;;;5034333;28;20035;-87
2022/06/22 01:41:43;;;;;;;8.43;4.22;;;;;;;;;;5034983;28;20037;-88
2022/06/22 01:44:13;;;;;;;6.82;4.38;;;;;;;;;;5034971;28;20017;-88
2022/06/22 01:46:39;;;;;;;9.95;5.00;;;;;;;;;;5034819;28;20105;-88
2022/06/22 01:49:09;;;;;;;7.73;5.50;;;;;;;;;;5034736;28;20683;-87
2022/06/22 01:51:38;;;;;;;8.18;4.82;;;;;;;;;;5033160;28;20032;-87
2022/06/22 01:54:05;;;;;;;10.05;5.05;;;;;;;;;;5018934;28;20026;-87
2022/06/22 01:56:42;;;;;;;8.35;4.90;;;;;;;;;;5013644;28;20057;-86
2022/06/22 01:59:13;;;;;;;9.40;5.15;;;;;;;;;;5014695;28;20044;-87
2022/06/22 02:01:45;;;;;;;6.60;4.93;;;;;;;;;;5014739;28;20042;-89
2022/06/22 02:04:19;;;;;;;12.38;4.60;;;;;;;;;;5014878;28;20093;-87
2022/06/22 02:09:37;;;;;;;10.95;5.32;;;;;;;;;;5018206;28;20160;-87
2022/06/22 02:12:20;;;;;;;7.45;4.90;;;;;;;;;;5014484;28;20371;-87
2022/06/22 02:14:49;;;;;;;12.38;5.45;;;;;;;;;;5014779;28;20482;-87
2022/06/22 02:17:17;;;;;;;10.80;5.47;;;;;;;;;;5014248;28;20193;-89
2022/06/22 02:19:43;;;;;;;9.60;5.95;;;;;;;;;;5031667;28;20087;-87
2022/06/22 02:22:11;;;;;;;10.18;6.00;;;;;;;;;;5033763;28;20072;-87
2022/06/22 02:24:40;;;;;;;9.23;6.03;;;;;;;;;;5032409;28;20029;-87
2022/06/22 02:27:10;;;;;;;12.05;6.32;;;;;;;;;;5034128;28;20104;-87
2022/06/22 02:29:37;;;;;;;8.23;6.35;;;;;;;;;;5017294;28;20026;-87
2022/06/22 02:32:05;;;;;;;12.52;7.00;;;;;;;;;;5014081;28;20018;-87
2022/06/22 02:34:31;;;;;;;10.20;6.47;;;;;;;;;;5012801;28;20030;-87
2022/06/22 02:36:58;;;;;;;9.85;6.35;;;;;;;;;;5014018;28;20024;-89
2022/06/22 02:39:24;;;;;;;9.95;6.60;;;;;;;;;;5015149;28;20021;-87
2022/06/22 02:44:37;;;;;;;11.93;7.30;;;;;;;;;;5014285;28;20033;-87
2022/06/22 02:47:02;;;;;;;13.48;7.20;;;;;;;;;;5013836;28;20018;-87
2022/06/22 02:49:32;;;;;;;9.47;6.67;;;;;;;;;;5013821;28;20034;-87
2022/06/22 02:51:58;;;;;;;8.80;6.20;;;;;;;;;;5014985;28;20452;-87
2022/06/22 02:54:36;;;;;;;12.18;7.40;;;;;;;;;;5013854;28;20042;-87
2022/06/22 02:57:04;;;;;;;11.05;6.78;;;;;;;;;;5018372;28;20048;-87
2022/06/22 02:59:30;;;;;;;10.88;7.25;;;;;;;;;;5033490;28;20504;-87
2022/06/22 03:01:56;;;;;;;11.77;7.15;;;;;;;;;;5033485;28;20010;-87
2022/06/22 03:04:21;;;;;;;15.73;7.50;;;;;;;;;;5032128;28;20021;-87
2022/06/22 03:06:49;;;;;;;9.65;6.72;;;;;;;;;;5027405;28;20033;-87
2022/06/22 03:09:15;;;;;;;11.25;7.03;;;;;;;;;;5027343;28;20071;-87
2022/06/22 03:11:42;;;;;;;9.77;6.70;;;;;;;;;;5033281;28;20029;-87
2022/06/22 03:14:16;;;;;;;12.23;6.68;;;;;;;;;;5033108;28;20376;-87
2022/06/22 03:16:43;;;;;;;8.98;6.75;;;;;;;;;;5033503;28;20033;-87
2022/06/22 03:19:11;;;;;;;9.55;6.38;;;;;;;;;;5033220;28;20057;-87
2022/06/22 03:21:37;;;;;;;12.27;7.05;;;;;;;;;;5031288;28;20025;-87
2022/06/22 03:24:06;;;;;;;13.98;7.97;;;;;;;;;;5031297;28;20025;-87
2022/06/22 03:26:35;;;;;;;9.85;7.45;;;;;;;;;;5031535;28;20630;-87
2022/06/22 03:29:19;;;;;;;10.63;7.38;;;;;;;;;;5032249;28;20380;-88
2022/06/22 03:31:48;;;;;;;14.10;8.07;;;;;;;;;;5032891;28;20025;-88
2022/06/22 03:34:15;;;;;;;10.57;7.47;;;;;;;;;;5032756;28;20025;-87
2022/06/22 03:36:40;;;;;;;13.02;7.28;;;;;;;;;;5026505;28;20495;-88
2022/06/22 03:39:08;;;;;;;14.63;7.83;;;;;;;;;;5011717;28;20126;-88
2022/06/22 03:41:37;;;;;;;10.38;7.30;;;;;;;;;;5013016;28;20305;-88
2022/06/22 03:44:08;;;;;;;8.88;6.93;;;;;;;;;;5011552;28;20018;-88
2022/06/22 03:46:33;;;;;;;9.30;7.00;;;;;;;;;;5012847;28;20060;-88
2022/06/22 03:49:10;;;;;;;12.10;6.77;;;;;;;;;;5012864;28;20022;-88
2022/06/22 03:51:35;;;;;;;12.55;7.00;;;;;;;;;;5012311;28;20498;-88
2022/06/22 03:54:10;;;;;;;8.43;6.87;;;;;;;;;;5012626;28;20109;-87
2022/06/22 03:56:37;;;;;;;11.07;6.65;;;;;;;;;;5015108;28;20637;-88
2022/06/22 03:59:03;;;;;;;11.90;6.25;;;;;;;;;;5032230;28;20402;-88
2022/06/22 04:01:29;;;;;;;9.70;7.05;;;;;;;;;;5032537;28;20503;-88
2022/06/22 04:03:55;;;;;;;8.13;5.63;;;;;;;;;;5032445;28;20049;-88
2022/06/22 04:06:26;;;;;;;13.35;6.90;;;;;;;;;;5022729;28;20025;-87
2022/06/22 04:08:52;;;;;;;12.27;8.23;;;;;;;;;;5032361;28;20072;-88
2022/06/22 04:11:24;;;;;;;14.77;8.55;;;;;;;;;;5032130;28;20029;-87
2022/06/22 04:13:52;;;;;;;10.45;7.05;;;;;;;;;;5032383;28;20017;-87
2022/06/22 04:16:20;;;;;;;12.27;6.85;;;;;;;;;;5032247;28;20021;-87
2022/06/22 04:18:53;;;;;;;8.48;6.30;;;;;;;;;;5032067;28;20021;-87
2022/06/22 04:21:39;;;;;;;12.75;7.07;;;;;;;;;;5023918;28;20024;-87
2022/06/22 04:24:11;;;;;;;13.80;6.60;;;;;;;;;;5012489;28;20076;-87
2022/06/22 04:26:43;;;;;;;9.68;5.93;;;;;;;;;;5012360;28;20021;-88
2022/06/22 04:29:15;;;;;;;13.88;8.52;;;;;;;;;;5012215;28;20104;-87
2022/06/22 04:31:46;;;;;;;12.40;7.20;;;;;;;;;;5012116;28;20040;-87
2022/06/22 04:34:19;;;;;;;13.57;7.18;;;;;;;;;;5012141;28;20124;-88
2022/06/22 04:36:50;;;;;;;9.88;7.03;;;;;;;;;;5012891;28;20097;-87
2022/06/22 04:39:19;;;;;;;12.30;6.25;;;;;;;;;;5012073;28;20036;-87
2022/06/22 04:41:45;;;;;;;10.48;7.10;;;;;;;;;;5011992;28;20057;-87
2022/06/22 04:44:15;;;;;;;11.57;7.13;;;;;;;;;;5012229;28;20099;-87
2022/06/22 04:46:48;;;;;;;17.23;7.38;;;;;;;;;;5018467;28;20482;-87
2022/06/22 04:49:23;;;;;;;10.20;7.22;;;;;;;;;;5031748;28;20025;-87
2022/06/22 04:51:51;;;;;;;9.98;6.68;;;;;;;;;;5030061;28;20025;-87
2022/06/22 04:54:22;;;;;;;11.30;8.00;;;;;;;;;;5031470;28;20383;-87
2022/06/22 04:56:49;;;;;;;8.98;6.43;;;;;;;;;;5031244;28;20022;-87
2022/06/22 04:59:15;;;;;;;9.57;5.65;;;;;;;;;;5031717;28;20488;-87
2022/06/22 05:01:43;;;;;;;10.95;6.93;;;;;;;;;;5031763;28;20018;-87
2022/06/22 05:04:16;;;;;;;10.38;6.55;;;;;;;;;;5030511;28;20020;-87
2022/06/22 05:06:45;;;;;;;7.30;5.72;;;;;;;;;;5022139;28;20025;-87
2022/06/22 05:09:13;;;;;;;8.05;5.88;;;;;;;;;;5012190;28;20026;-88
2022/06/22 05:11:42;;;;;;;11.55;6.47;;;;;;;;;;5011887;28;20018;-89
2022/06/22 05:14:19;;;;;;;13.38;6.95;;;;;;;;;;5011717;28;20022;-89
2022/06/22 05:16:48;;;;;;;11.02;7.35;;;;;;;;;;5011820;28;20021;-88
2022/06/22 05:19:14;;;;;;;10.45;7.28;;;;;;;;;;5010244;28;20072;-89
2022/06/22 05:21:42;;;;;;;14.23;7.25;;;;;;;;;;5019711;28;20028;-89
2022/06/22 05:24:31;;;;;;;8.00;6.50;;;;;;;;;;5031604;28;20029;-89
2022/06/22 05:26:57;;;;;;;11.02;6.68;;;;;;;;;;5029927;28;20044;-88
2022/06/22 05:29:32;;;;;;;7.15;5.50;;;;;;;;;;5030094;28;20018;-88
2022/06/22 05:31:59;;;;;;;9.43;6.32;;;;;;;;;;5028683;28;20079;-88
2022/06/22 05:34:27;;;;;;;8.90;5.47;;;;;;;;;;5025384;28;20013;-89
2022/06/22 05:36:59;;;;;;;10.73;7.63;;;;;;;;;;5023039;28;20109;-89
2022/06/22 05:39:25;;;;;;;10.68;7.97;;;;;;;;;;5012364;28;20365;-88
2022/06/22 05:41:50;;;;;;;14.32;7.47;;;;;;;;;;5011455;28;20040;-88
2022/06/22 05:44:18;;;;;;;10.57;7.13;;;;;;;;;;5011460;28;20045;-89
2022/06/22 05:46:54;;;;;;;13.60;7.55;;;;;;;;;;5011596;28;20060;-88
2022/06/22 05:49:22;;;;;;;9.82;7.22;;;;;;;;;;5011345;28;20057;-88
2022/06/22 05:51:55;;;;;;;16.92;7.43;;;;;;;;;;5012284;28;20022;-89
2022/06/22 05:54:46;;;;;;;14.27;7.45;;;;;;;;;;5022660;28;20040;-88
2022/06/22 05:57:15;;;;;;;12.95;6.65;;;;;;;;;;5035220;28;20041;-88
2022/06/22 05:59:45;;;;;;;9.52;6.18;;;;;;;;;;5034820;28;20052;-88
2022/06/22 06:02:13;;;;;;;10.32;6.07;;;;;;;;;;5034560;28;20013;-88
2022/06/22 06:04:47;;;;;;;9.77;5.80;;;;;;;;;;5033316;28;20040;-89
2022/06/22 06:07:17;;;;;;;8.85;6.82;;;;;;;;;;5032896;28;20021;-88
2022/06/22 06:09:43;;;;;;;10.75;6.18;;;;;;;;;;5032940;28;20059;-88
2022/06/22 06:12:17;;;;;;;13.10;6.13;;;;;;;;;;5034462;28;20065;-89
2022/06/22 06:14:45;;;;;;;10.18;6.00;;;;;;;;;;5033984;28;20030;-88
2022/06/22 06:17:11;;;;;;;9.48;5.82;;;;;;;;;;5034340;28;20026;-88
2022/06/22 06:19:39;;;;;;;9.43;5.57;;;;;;;;;;5033054;28;20062;-88
2022/06/22 06:22:05;;;;;;;9.70;5.93;;;;;;;;;;5033495;28;20021;-88
2022/06/22 06:24:37;;;;;;;7.90;5.57;;;;;;;;;;5033983;28;20021;-88
2022/06/22 06:29:53;;;;;;;8.77;4.85;;;;;;;;;;5034157;28;20410;-89
2022/06/22 06:32:33;;;;;;;12.65;5.68;;;;;;;;;;5019194;28;20018;-88
2022/06/22 06:35:11;;;;;;;11.50;5.65;;;;;;;;;;5012992;28;20395;-88
2022/06/22 06:37:46;;;;;;;9.52;5.28;;;;;;;;;;5014136;28;20517;-88
2022/06/22 06:40:14;;;;;;;10.20;5.55;;;;;;;;;;5014452;28;20075;-88
2022/06/22 06:42:46;;;;;;;9.18;4.97;;;;;;;;;;5026401;28;20101;-88
2022/06/22 06:45:16;;;;;;;8.27;4.63;;;;;;;;;;5034023;28;20582;-88
2022/06/22 06:47:42;;;;;;;10.13;4.15;;;;;;;;;;5034020;28;20045;-89
2022/06/22 06:50:11;;;;;;;12.93;5.18;;;;;;;;;;5033624;28;20032;-88
2022/06/22 06:52:36;;;;;;;11.50;3.92;;;;;;;;;;5033698;28;20017;-88
2022/06/22 06:55:14;;;;;;;11.10;3.23;;;;;;;;;;5031642;28;20494;-89
2022/06/22 06:57:47;;;;;;;7.78;3.08;;;;;;;;;;5030226;28;20021;-89
2022/06/22 07:00:12;;;;;;;7.40;3.58;;;;;;;;;;5023258;28;20048;-89
2022/06/22 07:02:39;;;;;;;7.07;2.60;;;;;;;;;;5018433;28;20348;-89
2022/06/22 07:05:10;;;;;;;10.93;2.75;;;;;;;;;;5032842;28;20018;-87
2022/06/22 07:07:36;;;;;;;;;;;;;;;;;;5030582;28;20071;-87
2022/06/22 07:10:30;;;;;;;8.45;3.10;;;;;;;;;;5032167;28;20004;-87
2022/06/22 07:12:59;;;;;;;6.80;2.75;;;;;;;;;;5032154;28;20036;-88
2022/06/22 07:15:28;;;;;;;7.70;2.67;;;;;;;;;;5022112;28;20636;-88
2022/06/22 07:17:56;;;;;;;8.75;2.33;;;;;;;;;;5022333;28;20029;-89
2022/06/22 07:20:23;;;;;;;6.18;2.33;;;;;;;;;;5024921;28;20036;-88
2022/06/22 07:22:50;;;;;;;13.15;2.63;;;;;;;;;;5014710;28;20285;-87
2022/06/22 07:25:22;;;;;;;6.60;2.80;;;;;;;;;;5008182;28;20022;-88
2022/06/22 07:27:52;;;;;;;7.82;2.40;;;;;;;;;;5013750;28;20033;-88
2022/06/22 07:30:24;;;;;;;7.13;3.45;;;;;;;;;;5026322;28;20501;-92
2022/06/22 07:33:06;;;;;;;6.32;2.13;;;;;;;;;;5023189;28;20018;-91
2022/06/22 07:35:37;;;;;;;11.98;3.10;;;;;;;;;;5044067;28;20391;-88
2022/06/22 07:38:21;;;;;;;7.07;2.47;;;;;;;;;;5017701;28;20112;-90
2022/06/22 07:43:31;;;;;;;7.55;2.72;;;;;;;;;;5010705;28;20087;-88
2022/06/22 07:45:56;;;;;;;5.57;2.35;;;;;;;;;;5012234;28;20605;-88
2022/06/22 07:48:23;;;;;;;6.53;2.00;;;;;;;;;;5020937;28;20038;-88
2022/06/22 07:50:51;;;;;;;17.95;2.28;;;;;;;;;;5023612;28;20065;-88
2022/06/22 07:53:16;;;;;;;4.88;2.13;;;;;;;;;;5027409;28;20075;-80
2022/06/22 07:56:00;;;;;;;4.90;2.10;;;;;;;;;;5027773;28;20064;-80
2022/06/22 07:58:27;;;;;;;6.40;2.15;;;;;;;;;;5021598;28;20083;-80
2022/06/22 08:00:58;;;;;;;6.90;1.88;;;;;;;;;;5022262;28;20025;-80
2022/06/22 08:03:23;;;;;;;5.47;1.83;;;;;;;;;;5025458;28;20464;-80
2022/06/22 08:05:50;;;;;;;7.07;2.00;;;;;;;;;;5028439;28;20120;-80
2022/06/22 08:08:28;;;;;;;5.55;2.65;;;;;;;;;;5032546;28;20358;-80
2022/06/22 08:10:58;;;;;;;6.70;2.25;;;;;;;;;;5027702;28;20030;-80
2022/06/22 08:13:24;;;;;;;6.55;2.08;;;;;;;;;;5027560;28;20025;-80
2022/06/22 08:15:52;;;;;;;8.40;1.70;;;;;;;;;;5026474;28;20037;-80
2022/06/22 08:18:18;;;;;;;10.40;1.90;;;;;;;;;;5017436;28;20419;-80
2022/06/22 08:20:45;;;;;;;5.68;1.75;;;;;;;;;;5025591;28;20021;-80
2022/06/22 08:23:13;;;;;;;2.70;1.45;;;;;;;;;;5021796;28;20218;-80
2022/06/22 08:25:39;;;;;;;7.47;1.38;;;;;;;;;;5027772;28;20013;-80
2022/06/22 08:28:06;;;;;;;6.88;1.52;;;;;;;;;;5025802;28;20502;-80
2022/06/22 08:30:31;;;;;;;7.47;2.00;;;;;;;;;;5027451;28;20026;-80
2022/06/22 08:33:02;;;;;;;4.43;1.50;;;;;;;;;;5025206;28;20017;-80
2022/06/22 08:35:34;;;;;;;3.80;1.30;;;;;;;;;;5023590;28;20294;-80
2022/06/22 08:38:18;;;;;;;4.05;1.23;;;;;;;;;;5024859;28;20026;-80
2022/06/22 08:41:02;;;;;;;10.75;2.03;;;;;;;;;;5027431;28;20049;-80
2022/06/22 08:43:34;;;;;;;4.03;1.40;;;;;;;;;;5025013;28;20112;-80
2022/06/22 08:46:00;;;;;;;3.20;1.30;;;;;;;;;;5030765;28;20209;-80
2022/06/22 08:48:28;;;;;;;5.07;1.57;;;;;;;;;;5021779;28;20393;-80
2022/06/22 08:51:12;;;;;;;3.72;1.40;;;;;;;;;;5007585;28;20478;-80
2022/06/22 08:53:37;;;;;;;7.65;1.45;;;;;;;;;;5023540;28;20079;-80
2022/06/22 08:56:07;;;;;;;3.87;1.93;;;;;;;;;;5027374;28;20463;-80
2022/06/22 08:58:41;;;;;;;8.23;1.67;;;;;;;;;;5025659;28;20013;-80
2022/06/22 09:01:12;;;;;;;2.95;1.05;;;;;;;;;;5023919;28;20026;-80
2022/06/22 09:03:38;;;;;;;6.43;2.38;;;;;;;;;;5009227;28;20512;-80
2022/06/22 09:06:15;;;;;;;6.60;0.87;;;;;;;;;;5022882;28;20558;-80
2022/06/22 09:08:53;;;;;;;5.53;1.67;;;;;;;;;;5028002;28;20054;-80
2022/06/22 09:11:37;;;;;;;6.18;1.13;;;;;;;;;;5023538;28;20404;-80
2022/06/22 09:14:08;;;;;;;3.40;0.98;;;;;;;;;;5014971;28;20068;-80
2022/06/22 09:16:46;;;;;;;5.53;1.48;;;;;;;;;;5019199;28;20187;-80
2022/06/22 09:19:30;;;;;;;3.78;1.30;;;;;;;;;;5022966;28;20156;-80
2022/06/22 09:22:01;;;;;;;5.78;1.85;;;;;;;;;;5022079;28;20037;-80
2022/06/22 09:24:40;;;;;;;8.25;1.70;;;;;;;;;;5015629;28;20021;-80
2022/06/22 09:27:19;;;;;;;4.47;1.00;;;;;;;;;;5024295;28;20120;-82
2022/06/22 09:29:47;;;;;;;6.15;1.35;;;;;;;;;;5029858;28;20028;-80
2022/06/22 09:32:12;;;;;;;5.13;1.20;;;;;;;;;;5025765;28;20204;-80
2022/06/22 09:34:41;;;;;;;3.97;1.40;;;;;;;;;;5012495;28;20052;-80
2022/06/22 09:37:12;;;;;;;3.10;1.00;;;;;;;;;;5024603;28;20052;-82
2022/06/22 09:39:44;;;;;;;3.83;1.02;;;;;;;;;;5017441;28;20384;-80
2022/06/22 09:42:22;;;;;;;5.93;1.17;;;;;;;;;;5019619;28;20116;-80
2022/06/22 09:45:08;;;;;;;4.38;1.23;;;;;;;;;;5029432;28;20036;-80
2022/06/22 09:47:48;;;;;;;5.40;1.42;;;;;;;;;;5028743;28;20079;-79
2022/06/22 09:50:13;;;;;;;3.75;1.50;;;;;;;;;;5029564;28;20033;-80
2022/06/22 09:52:49;;;;;;;3.97;1.23;;;;;;;;;;5029932;28;20025;-80
2022/06/22 09:58:19;;;;;;;4.43;1.23;;;;;;;;;;5029396;28;20477;-80
2022/06/22 10:01:16;;;;;;;3.78;1.23;;;;;;;;;;5021607;28;20029;-80
2022/06/22 10:04:01;;;;;;;7.07;1.10;;;;;;;;;;5039607;28;20046;-79
2022/06/22 10:06:41;;;;;;;4.40;1.30;;;;;;;;;;5030016;28;20063;-76
2022/06/22 10:09:06;;;;;;;6.32;1.23;;;;;;;;;;5030064;28;20092;-76
2022/06/22 10:11:31;;;;;;;7.67;2.67;;;;;;;;;;5027192;28;20471;-76
2022/06/22 10:14:02;;;;;;;3.10;1.10;;;;;;;;;;5027193;28;20036;-76
2022/06/22 10:16:31;;;;;;;2.47;1.10;;;;;;;;;;5022214;28;20033;-76
2022/06/22 10:18:58;;;;;;;4.68;1.20;;;;;;;;;;5021810;28;20022;-76
2022/06/22 10:21:42;;;;;;;3.33;1.30;;;;;;;;;;5028706;28;20558;-76
2022/06/22 10:24:07;;;;;;;6.60;1.45;;;;;;;;;;5029991;28;20028;-76
2022/06/22 10:26:50;;;;;;;4.50;1.20;;;;;;;;;;5012030;28;20025;-76
2022/06/22 10:29:25;;;;;;;8.00;1.30;;;;;;;;;;5023416;28;20346;-76
2022/06/22 10:32:08;;;;;;;4.47;1.30;;;;;;;;;;5034938;28;20013;-76
2022/06/22 10:34:51;;;;;;;4.43;1.70;;;;;;;;;;5031090;28;20041;-76
2022/06/22 10:37:28;;;;;;;8.35;1.40;;;;;;;;;;5016678;28;20026;-76
2022/06/22 10:39:59;;;;;;;6.72;1.65;;;;;;;;;;5013383;28;20522;-77
2022/06/22 10:45:30;;;;;;;5.57;1.52;;;;;;;;;;5022039;28;20387;-76
2022/06/22 10:48:05;;;;;;;5.35;1.50;;;;;;;;;;5028219;28;20371;-77
2022/06/22 10:50:49;;;;;;;6.05;1.70;;;;;;;;;;5029726;28;20021;-77
2022/06/22 10:53:33;;;;;;;7.38;1.35;;;;;;;;;;5022200;28;20017;-77
2022/06/22 10:56:01;;;;;;;4.65;1.65;;;;;;;;;;5025420;28;20029;-77
2022/06/22 10:58:35;;;;;;;5.95;1.20;;;;;;;;;;5030760;28;20045;-77
2022/06/22 11:01:18;;;;;;;5.15;1.60;;;;;;;;;;5032736;28;20049;-77
2022/06/22 11:03:49;;;;;;;6.40;1.58;;;;;;;;;;5030880;28;20030;-76
2022/06/22 11:06:30;;;;;;;5.55;1.70;;;;;;;;;;5033200;28;20021;-76
2022/06/22 11:09:14;;;;;;;4.72;2.13;;;;;;;;;;5032963;28;20025;-76
2022/06/22 11:12:01;;;;;;;6.38;1.42;;;;;;;;;;5027329;28;20034;-77
2022/06/22 11:14:45;;;;;;;10.65;2.05;;;;;;;;;;5018674;28;20053;-76
2022/06/22 11:17:30;;;;;;;4.78;1.42;;;;;;;;;;5013465;28;20069;-77
2022/06/22 11:19:58;;;;;;;9.00;1.88;;;;;;;;;;5024317;28;20120;-77
2022/06/22 11:22:29;;;;;;;11.63;1.40;;;;;;;;;;5032102;28;20127;-76
2022/06/22 11:25:13;;;;;;;4.10;1.50;;;;;;;;;;5029703;28;20022;-76
2022/06/22 11:30:52;;;;;;;4.65;1.65;;;;;;;;;;5030362;28;20033;-76
2022/06/22 11:33:17;;;;;;;4.25;1.80;;;;;;;;;;5030569;28;20022;-76
2022/06/22 11:35:48;;;;;;;5.07;1.90;;;;;;;;;;5036075;28;20067;-77
2022/06/22 11:38:32;;;;;;;5.93;1.92;;;;;;;;;;5018028;28;20066;-76
2022/06/22 11:41:18;;;;;;;8.20;4.60;;;;;;;;;;5032656;28;20100;-76
2022/06/22 11:43:43;;;;;;;9.70;5.60;;;;;;;;;;5028894;28;20632;-76
2022/06/22 11:46:19;;;;;;;18.30;12.27;;;;;;;;;;5024762;28;20017;-77
2022/06/22 11:48:57;;;;;;;22.00;16.77;;;;;;;;;;5027433;28;20021;-76
2022/06/22 11:51:28;;;;;;;5.55;2.83;;;;;;;;;;5030334;28;20067;-77
2022/06/22 11:53:59;;;;;;;5.32;1.83;;;;;;;;;;5027544;28;20507;-77
2022/06/22 11:56:36;;;;;;;8.63;1.90;;;;;;;;;;5031384;28;20426;-77
2022/06/22 11:59:20;;;;;;;6.80;2.05;;;;;;;;;;5025146;28;20041;-77
2022/06/22 12:02:04;;;;;;;7.90;2.92;;;;;;;;;;5021311;28;20068;-77
2022/06/22 12:04:40;;;;;;;9.50;1.83;;;;;;;;;;5030309;28;20010;-77
2022/06/22 12:07:14;;;;;;;3.45;1.70;;;;;;;;;;5029498;28;20490;-77
2022/06/22 12:09:52;;;;;;;7.03;2.58;;;;;;;;;;5028954;28;20021;-77
2022/06/22 12:12:20;;;;;;;7.65;2.05;;;;;;;;;;5018944;28;20028;-77
2022/06/22 12:15:05;;;;;;;9.73;1.75;;;;;;;;;;5027513;28;20071;-78
2022/06/22 12:17:46;;;;;;;5.43;1.45;;;;;;;;;;5028818;28;20418;-77
2022/06/22 12:20:19;;;;;;;3.67;1.50;;;;;;;;;;5026070;28;20021;-77
2022/06/22 12:22:54;;;;;;;7.45;1.70;;;;;;;;;;5023731;28;20454;-76
2022/06/22 12:25:55;;;;;;;8.18;1.70;;;;;;;;;;5035698;28;20048;-76
2022/06/22 12:28:23;;;;;;;11.98;2.75;;;;;;;;;;5042620;28;20723;-77
2022/06/22 12:30:57;;;;;;;4.93;1.60;;;;;;;;;;5028145;28;20021;-77
2022/06/22 12:33:31;;;;;;;3.72;1.35;;;;;;;;;;5025808;28;20112;-76
2022/06/22 12:35:58;;;;;;;5.20;1.60;;;;;;;;;;5020933;28;20376;-76
2022/06/22 12:38:24;;;;;;;5.07;2.15;;;;;;;;;;5026382;28;20054;-76
2022/06/22 12:40:49;;;;;;;6.43;1.40;;;;;;;;;;5019572;28;20101;-77
2022/06/22 12:43:20;;;;;;;9.10;1.57;;;;;;;;;;5023120;28;20285;-76
2022/06/22 12:45:56;;;;;;;3.63;1.52;;;;;;;;;;5024961;28;20017;-77
2022/06/22 12:48:33;;;;;;;5.47;1.60;;;;;;;;;;5025464;28;20053;-77
2022/06/22 12:51:07;;;;;;;8.52;1.40;;;;;;;;;;5023868;28;20104;-76
2022/06/22 12:53:39;;;;;;;3.33;1.40;;;;;;;;;;5023909;28;20029;-77
2022/06/22 12:56:23;;;;;;;4.13;1.38;;;;;;;;;;5021876;28;20036;-76
2022/06/22 12:59:02;;;;;;;7.28;2.22;;;;;;;;;;5022306;28;20041;-76
2022/06/22 13:01:27;;;;;;;5.32;1.08;;;;;;;;;;5024966;28;20518;-76
2022/06/22 13:03:55;;;;;;;2.90;1.30;;;;;;;;;;5026677;28;20030;-76
2022/06/22 13:06:21;;;;;;;6.47;1.60;;;;;;;;;;5023330;28;20030;-76
2022/06/22 13:08:47;;;;;;;3.13;1.20;;;;;;;;;;5015716;28;20109;-76
2022/06/22 13:11:17;;;;;;;9.90;1.67;;;;;;;;;;5031866;28;20040;-76
2022/06/22 13:14:01;;;;;;;6.65;1.92;;;;;;;;;;5028340;28;20534;-76
2022/06/22 13:16:52;;;;;;;10.50;2.35;;;;;;;;;;5016323;28;20056;-77
2022/06/22 13:19:29;;;;;;;6.57;1.85;;;;;;;;;;5033599;28;20033;-77
2022/06/22 13:22:04;;;;;;;6.80;1.63;;;;;;;;;;5017054;28;20037;-77
2022/06/22 13:24:35;;;;;;;2.92;1.38;;;;;;;;;;5029966;28;20037;-77
2022/06/22 13:27:07;;;;;;;3.92;1.55;;;;;;;;;;5032781;28;20022;-77
2022/06/22 13:29:43;;;;;;;4.57;1.48;;;;;;;;;;5032592;28;20053;-77
2022/06/22 13:32:10;;;;;;;4.68;1.55;;;;;;;;;;5031048;28;20028;-77
2022/06/22 13:34:41;;;;;;;5.70;1.42;;;;;;;;;;5033043;28;20025;-76
2022/06/22 13:37:18;;;;;;;6.10;1.27;;;;;;;;;;5034170;28;20028;-77
2022/06/22 13:39:56;;;;;;;4.72;1.58;;;;;;;;;;5033633;28;20105;-76
2022/06/22 13:42:33;;;;;;;4.93;1.30;;;;;;;;;;5030265;28;20045;-77
2022/06/22 13:45:17;;;;;;;3.78;1.40;;;;;;;;;;5026321;28;20026;-77
2022/06/22 13:48:05;;;;;;;6.13;1.73;;;;;;;;;;5025646;28;20029;-76
2022/06/22 13:50:51;;;;;;;5.55;1.40;;;;;;;;;;5026790;28;20041;-76
2022/06/22 13:53:28;;;;;;;3.63;1.40;;;;;;;;;;5031297;28;20055;-76
2022/06/22 13:55:59;;;;;;;2.85;1.27;;;;;;;;;;5026163;28;20037;-76
2022/06/22 13:58:27;;;;;;;3.53;1.10;;;;;;;;;;5029359;28;20104;-76
2022/06/22 14:01:01;;;;;;;4.95;1.88;;;;;;;;;;5030803;28;20037;-77
2022/06/22 14:03:26;;;;;;;6.43;1.38;;;;;;;;;;5031511;28;20033;-77
2022/06/22 14:05:55;;;;;;;5.87;1.23;;;;;;;;;;5019585;28;20018;-77
2022/06/22 14:08:21;;;;;;;5.57;1.50;;;;;;;;;;5029983;28;20017;-76
2022/06/22 14:10:46;;;;;;;3.80;1.60;;;;;;;;;;5024723;28;20024;-76
2022/06/22 14:13:30;;;;;;;3.73;1.50;;;;;;;;;;5025617;28;20514;-76
2022/06/22 14:16:10;;;;;;;6.20;2.17;;;;;;;;;;5025982;28;20870;-76
2022/06/22 14:18:38;;;;;;;5.05;1.40;;;;;;;;;;5024318;28;20018;-77
2022/06/22 14:21:26;;;;;;;3.33;1.55;;;;;;;;;;5013769;28;20026;-76
2022/06/22 14:23:52;;;;;;;11.57;2.30;;;;;;;;;;5027134;28;20025;-76
2022/06/22 14:26:20;;;;;;;6.22;1.48;;;;;;;;;;5030707;28;20021;-76
2022/06/22 14:28:50;;;;;;;3.55;1.23;;;;;;;;;;5033249;28;20026;-76
2022/06/22 14:31:18;;;;;;;4.40;1.45;;;;;;;;;;5031202;28;20021;-77
2022/06/22 14:33:43;;;;;;;4.60;1.20;;;;;;;;;;5028987;28;20018;-76
2022/06/22 14:36:17;;;;;;;6.50;1.33;;;;;;;;;;5033748;28;20037;-77
2022/06/22 14:38:46;;;;;;;5.57;1.40;;;;;;;;;;5031943;28;20274;-77
2022/06/22 14:41:14;;;;;;;7.45;1.30;;;;;;;;;;5026193;28;20017;-77
2022/06/22 14:44:03;;;;;;;3.63;1.20;;;;;;;;;;5022759;28;20022;-77
2022/06/22 14:46:34;;;;;;;6.25;1.88;;;;;;;;;;5026237;28;20033;-76
2022/06/22 14:49:06;;;;;;;6.63;1.27;;;;;;;;;;5032939;28;20035;-77
2022/06/22 14:51:34;;;;;;;7.43;1.50;;;;;;;;;;5027148;28;20025;-76
2022/06/22 14:54:06;;;;;;;6.82;1.70;;;;;;;;;;5023234;28;20101;-77
2022/06/22 14:56:37;;;;;;;7.78;1.60;;;;;;;;;;5013626;28;20372;-77
2022/06/22 14:59:02;;;;;;;;;;;;;;;;;;5024372;28;20021;-76
2022/06/22 15:01:32;;;;;;;5.35;1.15;;;;;;;;;;5030893;28;19924;-76
2022/06/22 15:03:58;;;;;;;7.18;1.30;;;;;;;;;;5023405;28;20041;-77
2022/06/22 15:06:42;;;;;;;4.40;1.70;;;;;;;;;;5029341;28;20051;-77
2022/06/22 15:09:13;;;;;;;3.08;1.40;;;;;;;;;;5013094;28;20033;-76
2022/06/22 15:14:39;;;;;;;3.85;1.48;;;;;;;;;;5032235;28;20071;-77
2022/06/22 15:17:10;;;;;;;3.55;1.50;;;;;;;;;;5029380;28;20386;-77
2022/06/22 15:19:36;;;;;;;;;;;;;;;;;;5030373;28;20063;-77
2022/06/22 15:22:08;;;;;;;3.43;1.40;;;;;;;;;;5031906;28;20309;-77
2022/06/22 15:24:39;;;;;;;3.85;1.45;;;;;;;;;;5023920;28;20255;-77
2022/06/22 15:27:04;;;;;;;;;;;;;;;;;;5032928;28;20053;-78
2022/06/22 15:29:45;;;;;;;5.78;1.73;;;;;;;;;;5024565;28;19941;-77
2022/06/22 15:32:15;;;;;;;7.32;1.70;;;;;;;;;;5025868;28;20022;-77